General WM J Fox Airfield
KWJF : rendu visible

Aérodrome :











RETROUVEZ-NOUS SUR...

 
LOGIN :

S'inscrire | Disclaimer

   EN    FR    IT 

 









Légende :    VFR   VFR Marginal   IFR   IFR Intensif   IFR Très Intensif
Visi : 
Plafond : 
>= 8 km
>= 3000ft
5 à 8 km
1000 à 3000 ft
1500m à 5 km
500 à 1000 ft
800 à 1500m
200 à 500 ft
< 800m
< 200 ft
Symboles :   Orages  Brouillard  Fortes neiges  Fortes précipitations  Vent > 20 kt






- Altitude de l'aérodrome : 2351 ft


KWJF - General WM J Fox

DERNIER METAR :
  • 142056Z 24013KT 10SM CLR 26/M04 A3006 RMK AO2 SLP172 T02611044 56019

METARs EXPIRÉS :
  • 141956Z 22013KT 10SM CLR 26/M04 A3008 RMK AO2 SLP177 T02561039
  • 141856Z 23016G22KT 10SM CLR 24/M03 A3009 RMK AO2 SLP184 T02391033

TAF KWJF
Valide du 14 à 18h jusqu'au 15 à 18h UTC


141745Z 1418/1518 09004KT P6SM BKN150
FM142000 23012KT P6SM BKN200
FM150500 27008KT P6SM BKN200



MET'MAP, la Météo Aéronautique d'un coup d'oeil ! - Copyright ORBIFLY Décembre 2007 - Disclaimer

ORBIFLY MET'MAP TEAM :

Programmation & Développement : Alexandra Zaïnal
Conception & Développement : Baudouin d'Aumeries
Co-Programmation & Développement : Marc-Olivier Méhu
Soutien technique & logistique : Manuel Goepfert

Contact : metmap@orbifly.com




SOURCES & CREDITS :

   NOAA       Earth
Advisory